createdAt,value
2023-04-25T00:01:37.200Z,100.00
2023-04-25T00:04:40.741Z,100.00
2023-04-25T00:07:43.828Z,100.00
2023-04-25T00:10:46.830Z,100.00
2023-04-25T00:13:50.983Z,100.00
2023-04-25T00:16:53.772Z,100.00
2023-04-25T00:19:56.992Z,100.00
2023-04-25T00:22:59.937Z,100.00
2023-04-25T00:26:03.206Z,100.00
2023-04-25T00:29:06.185Z,100.00
2023-04-25T00:32:08.806Z,100.00
2023-04-25T00:35:11.838Z,100.00
2023-04-25T00:38:14.868Z,100.00
2023-04-25T00:41:17.564Z,100.00
2023-04-25T00:44:20.977Z,100.00
2023-04-25T00:47:24.435Z,100.00
2023-04-25T00:50:27.295Z,100.00
2023-04-25T00:53:31.388Z,100.00
2023-04-25T00:56:34.139Z,100.00
2023-04-25T00:59:37.628Z,100.00
2023-04-25T01:02:41.515Z,100.00
2023-04-25T01:05:44.980Z,100.00
2023-04-25T01:08:48.809Z,100.00
2023-04-25T01:11:52.180Z,100.00
2023-04-25T01:14:55.436Z,100.00
2023-04-25T01:17:59.403Z,100.00
2023-04-25T01:21:12.130Z,100.00
2023-04-25T01:24:15.554Z,100.00
2023-04-25T01:27:19.114Z,100.00
2023-04-25T01:30:22.995Z,100.00
2023-04-25T01:33:25.672Z,100.00
2023-04-25T01:36:29.629Z,100.00
2023-04-25T01:39:32.818Z,100.00
2023-04-25T01:42:37.618Z,100.00
2023-04-25T01:45:43.533Z,100.00
2023-04-25T01:48:47.651Z,100.00
2023-04-25T01:51:50.604Z,100.00
2023-04-25T01:54:55.561Z,100.00
2023-04-25T01:57:58.069Z,100.00
2023-04-25T02:01:11.962Z,100.00
2023-04-25T02:04:23.216Z,100.00
2023-04-25T02:07:27.587Z,100.00
2023-04-25T02:10:30.553Z,100.00
2023-04-25T02:13:52.101Z,100.00
2023-04-25T02:17:13.771Z,100.00
2023-04-25T02:20:21.301Z,100.00
2023-04-25T02:23:23.958Z,100.00
2023-04-25T02:26:27.055Z,100.00
2023-04-25T02:29:30.644Z,100.00
2023-04-25T02:32:35.565Z,100.00
2023-04-25T02:35:38.661Z,100.00
2023-04-25T02:38:41.671Z,100.00
2023-04-25T02:41:44.614Z,100.00
2023-04-25T02:44:47.212Z,100.00
2023-04-25T02:47:49.946Z,100.00
2023-04-25T02:50:55.418Z,100.00
2023-04-25T02:53:58.387Z,100.00
2023-04-25T02:57:02.206Z,100.00
2023-04-25T03:00:09.379Z,100.00
2023-04-25T03:03:12.463Z,100.00
2023-04-25T03:06:16.529Z,100.00
2023-04-25T03:09:19.376Z,100.00
2023-04-25T03:12:22.280Z,100.00
2023-04-25T03:15:24.940Z,100.00
2023-04-25T03:18:29.331Z,100.00
2023-04-25T03:21:33.809Z,100.00
2023-04-25T03:24:38.276Z,100.00
2023-04-25T03:27:41.161Z,100.00
2023-04-25T03:30:43.878Z,100.00
2023-04-25T03:33:47.206Z,100.00
2023-04-25T03:36:49.767Z,100.00
2023-04-25T03:39:52.708Z,100.00
2023-04-25T03:42:55.757Z,100.00
2023-04-25T03:45:59.222Z,100.00
2023-04-25T03:49:02.618Z,100.00
2023-04-25T03:52:23.007Z,100.00
2023-04-25T03:55:25.993Z,100.00
2023-04-25T03:58:29.604Z,100.00
2023-04-25T04:01:32.242Z,100.00
2023-04-25T04:04:35.469Z,100.00
2023-04-25T04:07:41.079Z,100.00
2023-04-25T04:10:48.479Z,100.00
2023-04-25T04:13:51.903Z,100.00
2023-04-25T04:16:54.668Z,100.00
2023-04-25T04:19:58.484Z,100.00
2023-04-25T04:23:02.434Z,100.00
2023-04-25T04:26:08.235Z,100.00
2023-04-25T04:29:29.818Z,100.00
2023-04-25T04:32:41.366Z,100.00
2023-04-25T04:35:44.370Z,100.00
2023-04-25T04:38:47.797Z,100.00
2023-04-25T04:41:59.404Z,100.00
2023-04-25T04:45:28.702Z,100.00
2023-04-25T04:48:50.217Z,100.00
2023-04-25T04:52:15.869Z,100.00
2023-04-25T04:55:51.121Z,100.00
2023-04-25T04:59:08.818Z,100.00
2023-04-25T05:02:19.195Z,100.00
2023-04-25T05:05:47.865Z,100.00
2023-04-25T05:09:20.279Z,100.00
2023-04-25T05:12:45.993Z,100.00
2023-04-25T05:16:05.699Z,100.00
2023-04-25T05:19:24.535Z,100.00
2023-04-25T05:22:47.304Z,100.00
2023-04-25T05:25:55.417Z,100.00
2023-04-25T05:29:08.524Z,100.00
2023-04-25T05:32:33.784Z,100.00
2023-04-25T05:35:36.822Z,100.00
2023-04-25T05:38:39.463Z,100.00
2023-04-25T05:42:14.470Z,100.00
2023-04-25T05:45:39.941Z,100.00
2023-04-25T05:49:03.816Z,100.00
2023-04-25T05:52:17.521Z,100.00
2023-04-25T05:55:27.087Z,100.00
2023-04-25T05:58:30.083Z,100.00
2023-04-25T06:01:33.726Z,100.00
2023-04-25T06:04:36.815Z,100.00
2023-04-25T06:07:39.645Z,100.00
2023-04-25T06:10:42.363Z,100.00
2023-04-25T06:13:45.297Z,100.00
2023-04-25T06:16:48.958Z,100.00
2023-04-25T06:19:51.668Z,100.00
2023-04-25T06:22:54.981Z,100.00
2023-04-25T06:26:04.446Z,100.00
2023-04-25T06:29:08.248Z,100.00
2023-04-25T06:32:11.264Z,100.00
2023-04-25T06:35:14.162Z,100.00
2023-04-25T06:38:17.171Z,100.00
2023-04-25T06:41:23.545Z,100.00
2023-04-25T06:44:27.322Z,100.00
2023-04-25T06:47:30.843Z,100.00
2023-04-25T06:50:34.898Z,100.00
2023-04-25T06:53:37.667Z,100.00
2023-04-25T06:56:43.356Z,100.00
2023-04-25T06:59:50.414Z,100.00
2023-04-25T07:02:53.241Z,100.00
2023-04-25T07:05:56.264Z,100.00
2023-04-25T07:08:59.950Z,100.00
2023-04-25T07:12:02.699Z,100.00
2023-04-25T07:15:07.281Z,100.00
2023-04-25T07:18:11.872Z,100.00
2023-04-25T07:21:14.820Z,100.00
2023-04-25T07:24:19.466Z,100.00
2023-04-25T07:27:23.735Z,100.00
2023-04-25T07:30:31.755Z,100.00
2023-04-25T07:33:35.107Z,100.00
2023-04-25T07:36:37.855Z,100.00
2023-04-25T07:39:40.658Z,100.00
2023-04-25T07:42:43.317Z,100.00
2023-04-25T07:45:48.084Z,100.00
2023-04-25T07:48:53.182Z,100.00
2023-04-25T07:51:55.926Z,100.00
2023-04-25T07:54:59.780Z,100.00
2023-04-25T07:58:11.100Z,100.00
2023-04-25T08:01:16.246Z,100.00
2023-04-25T08:04:30.034Z,100.00
2023-04-25T08:07:41.926Z,100.00
2023-04-25T08:10:45.386Z,100.00
2023-04-25T08:13:49.489Z,100.00
2023-04-25T08:16:52.128Z,100.00
2023-04-25T08:19:56.545Z,100.00
2023-04-25T08:23:04.253Z,100.00
2023-04-25T08:26:22.505Z,100.00
2023-04-25T08:29:27.040Z,100.00
2023-04-25T08:32:30.936Z,100.00
2023-04-25T08:35:51.473Z,100.00
2023-04-25T08:38:55.534Z,100.00
2023-04-25T08:41:59.038Z,100.00
2023-04-25T08:45:07.133Z,100.00
2023-04-25T08:48:15.976Z,100.00
2023-04-25T08:51:26.045Z,100.00
2023-04-25T08:54:35.005Z,100.00
2023-04-25T08:57:39.394Z,100.00
2023-04-25T09:00:42.730Z,100.00
2023-04-25T09:03:48.520Z,100.00
2023-04-25T09:06:51.581Z,100.00
2023-04-25T09:09:54.445Z,100.00
2023-04-25T09:13:09.955Z,100.00
2023-04-25T09:16:31.702Z,100.00
2023-04-25T09:20:09.190Z,100.00
2023-04-25T09:23:12.352Z,100.00
2023-04-25T09:26:18.034Z,100.00
2023-04-25T09:29:30.460Z,100.00
2023-04-25T09:34:13.691Z,100.00
2023-04-25T09:37:31.467Z,100.00
2023-04-25T09:41:12.433Z,100.00
2023-04-25T09:44:25.851Z,100.00
2023-04-25T09:47:30.245Z,100.00
2023-04-25T09:50:33.124Z,100.00
2023-04-25T09:53:47.373Z,100.00
2023-04-25T09:57:13.597Z,100.00
2023-04-25T10:00:17.486Z,100.00
2023-04-25T10:03:21.690Z,100.00
2023-04-25T10:06:35.827Z,100.00
2023-04-25T10:09:40.918Z,100.00
2023-04-25T10:12:45.358Z,100.00
2023-04-25T10:15:48.405Z,100.00
2023-04-25T10:18:51.914Z,100.00
2023-04-25T10:22:05.721Z,100.00
2023-04-25T10:25:09.520Z,100.00
2023-04-25T10:28:12.151Z,100.00
2023-04-25T10:31:17.691Z,100.00
2023-04-25T10:34:24.625Z,100.00
2023-04-25T10:37:27.145Z,100.00
2023-04-25T10:40:30.215Z,100.00
2023-04-25T10:43:32.721Z,100.00
2023-04-25T10:46:37.179Z,100.00
2023-04-25T10:49:43.654Z,100.00
2023-04-25T10:52:46.290Z,100.00
2023-04-25T10:55:52.841Z,100.00
2023-04-25T10:59:21.461Z,100.00
2023-04-25T11:02:29.299Z,100.00
2023-04-25T11:05:55.078Z,100.00
2023-04-25T11:09:03.141Z,100.00
2023-04-25T11:12:08.348Z,100.00
2023-04-25T11:15:11.402Z,100.00
2023-04-25T11:18:17.814Z,100.00
2023-04-25T11:21:21.275Z,100.00
2023-04-25T11:24:28.726Z,100.00
2023-04-25T11:27:31.546Z,100.00
2023-04-25T11:30:34.303Z,100.00
2023-04-25T11:33:37.204Z,100.00
2023-04-25T11:36:40.101Z,100.00
2023-04-25T11:39:47.337Z,100.00
2023-04-25T11:42:50.106Z,100.00
2023-04-25T11:45:53.523Z,100.00
2023-04-25T11:48:58.552Z,100.00
2023-04-25T11:52:01.981Z,100.00
2023-04-25T11:55:31.397Z,100.00
2023-04-25T11:58:33.856Z,100.00
2023-04-25T12:01:38.855Z,100.00
2023-04-25T12:04:42.364Z,100.00
2023-04-25T12:07:45.685Z,100.00
2023-04-25T12:10:48.898Z,100.00
2023-04-25T12:13:54.343Z,100.00
2023-04-25T12:16:59.575Z,100.00
2023-04-25T12:20:16.560Z,100.00
2023-04-25T12:23:28.618Z,100.00
2023-04-25T12:27:03.368Z,100.00
2023-04-25T12:30:08.164Z,100.00
2023-04-25T12:33:11.397Z,100.00
2023-04-25T12:36:14.782Z,100.00
2023-04-25T12:39:20.999Z,100.00
2023-04-25T12:42:23.545Z,100.00
2023-04-25T12:45:26.170Z,100.00
2023-04-25T12:48:28.788Z,100.00
2023-04-25T12:51:31.669Z,100.00
2023-04-25T12:54:36.582Z,100.00
2023-04-25T12:57:39.178Z,100.00
2023-04-25T13:00:42.262Z,100.00
2023-04-25T13:03:45.718Z,100.00
2023-04-25T13:06:48.743Z,100.00
2023-04-25T13:09:51.332Z,100.00
2023-04-25T13:12:53.946Z,100.00
2023-04-25T13:15:56.624Z,100.00
2023-04-25T13:19:00.221Z,100.00
2023-04-25T13:22:05.337Z,100.00
2023-04-25T13:25:09.297Z,100.00
2023-04-25T13:28:11.903Z,100.00
2023-04-25T13:31:14.586Z,100.00
2023-04-25T13:34:17.201Z,100.00
2023-04-25T13:37:19.751Z,100.00
2023-04-25T13:40:24.038Z,100.00
2023-04-25T13:43:27.949Z,100.00
2023-04-25T13:46:45.496Z,100.00
2023-04-25T13:49:48.518Z,100.00
2023-04-25T13:52:51.174Z,100.00
2023-04-25T13:55:53.722Z,100.00
2023-04-25T13:58:56.620Z,100.00
2023-04-25T14:01:59.898Z,100.00
2023-04-25T14:05:03.610Z,100.00
2023-04-25T14:08:08.162Z,100.00
2023-04-25T14:11:10.932Z,100.00
2023-04-25T14:14:16.727Z,100.00
2023-04-25T14:17:22.667Z,100.00
2023-04-25T14:20:25.304Z,100.00
2023-04-25T14:23:28.333Z,100.00
2023-04-25T14:26:31.234Z,98.51
2023-04-25T14:29:34.380Z,98.42
2023-04-25T14:32:36.967Z,99.11
2023-04-25T14:35:39.838Z,100.00
2023-04-25T14:38:42.471Z,98.65
2023-04-25T14:41:45.558Z,100.00
2023-04-25T14:44:48.273Z,99.82
2023-04-25T14:47:51.164Z,98.93
2023-04-25T14:50:53.996Z,99.92
2023-04-25T14:53:56.753Z,98.69
2023-04-25T14:56:59.589Z,99.48
2023-04-25T15:00:03.017Z,97.02
2023-04-25T15:03:08.799Z,93.99
2023-04-25T15:06:12.008Z,96.22
2023-04-25T15:09:14.873Z,95.34
2023-04-25T15:12:17.657Z,94.78
2023-04-25T15:18:28.148Z,93.61
2023-04-25T15:21:32.020Z,92.91
2023-04-25T15:24:34.855Z,92.45
2023-04-25T15:27:41.778Z,94.58
2023-04-25T15:30:45.119Z,95.25
2023-04-25T15:33:47.792Z,95.47
2023-04-25T15:36:50.514Z,92.95
2023-04-25T15:40:13.622Z,94.63
2023-04-25T15:43:17.495Z,94.33
2023-04-25T15:46:20.282Z,93.59
2023-04-25T15:49:23.437Z,93.38
2023-04-25T15:52:26.173Z,93.74
2023-04-25T15:55:29.523Z,90.40
2023-04-25T15:58:32.522Z,90.63
2023-04-25T16:01:35.318Z,87.38
2023-04-25T16:04:38.793Z,89.29
2023-04-25T16:07:42.921Z,87.78
2023-04-25T16:10:45.573Z,86.94
2023-04-25T16:13:48.536Z,87.17
2023-04-25T16:16:51.178Z,86.51
2023-04-25T16:19:53.905Z,87.07
2023-04-25T16:22:56.658Z,87.36
2023-04-25T16:25:59.587Z,87.61
2023-04-25T16:29:05.066Z,88.33
2023-04-25T16:32:08.339Z,88.88
2023-04-25T16:35:10.949Z,88.72
2023-04-25T16:38:13.539Z,88.86
2023-04-25T16:41:16.230Z,91.79
2023-04-25T16:44:18.775Z,91.52
2023-04-25T16:47:22.120Z,90.00
2023-04-25T16:50:24.851Z,90.93
2023-04-25T16:53:27.648Z,90.52
2023-04-25T16:56:30.603Z,93.96
2023-04-25T16:59:33.115Z,91.95
2023-04-25T17:02:36.003Z,91.15
2023-04-25T17:05:38.864Z,92.75
2023-04-25T17:08:42.074Z,92.70
2023-04-25T17:11:44.810Z,91.64
2023-04-25T17:14:48.813Z,92.04
2023-04-25T17:17:51.942Z,91.20
2023-04-25T17:20:55.770Z,94.00
2023-04-25T17:23:59.294Z,94.19
2023-04-25T17:27:02.685Z,94.26
2023-04-25T17:30:07.154Z,93.87
2023-04-25T17:33:11.729Z,95.83
2023-04-25T17:36:15.032Z,95.29
2023-04-25T17:39:18.806Z,94.90
2023-04-25T17:42:21.818Z,95.35
2023-04-25T17:45:24.521Z,95.79
2023-04-25T17:48:27.518Z,95.79
2023-04-25T17:51:30.554Z,97.26
2023-04-25T17:54:33.306Z,96.56
2023-04-25T17:57:36.342Z,97.57
2023-04-25T18:00:39.633Z,99.97
2023-04-25T18:03:45.616Z,100.00
2023-04-25T18:06:48.517Z,100.00
2023-04-25T18:09:51.321Z,99.70
2023-04-25T18:12:54.293Z,100.00
2023-04-25T18:15:57.211Z,100.00
2023-04-25T18:19:05.327Z,100.00
2023-04-25T18:22:08.513Z,100.00
2023-04-25T18:25:12.067Z,100.00
2023-04-25T18:28:15.342Z,100.00
2023-04-25T18:31:22.874Z,99.45
2023-04-25T18:34:27.613Z,98.79
2023-04-25T18:37:30.635Z,100.00
2023-04-25T18:40:35.175Z,100.00
2023-04-25T18:43:40.436Z,100.00
2023-04-25T18:46:45.736Z,100.00
2023-04-25T18:49:50.823Z,100.00
2023-04-25T18:52:54.397Z,100.00
2023-04-25T18:55:57.207Z,100.00
2023-04-25T18:59:00.651Z,100.00
2023-04-25T19:02:05.492Z,100.00
2023-04-25T19:05:10.578Z,100.00
2023-04-25T19:08:12.995Z,100.00
2023-04-25T19:14:23.253Z,100.00
2023-04-25T19:17:27.345Z,100.00
2023-04-25T19:20:31.664Z,100.00
2023-04-25T19:23:35.144Z,100.00
2023-04-25T19:26:38.185Z,100.00
2023-04-25T19:29:46.305Z,100.00
2023-04-25T19:32:49.101Z,100.00
2023-04-25T19:35:52.549Z,100.00
2023-04-25T19:38:55.027Z,100.00
2023-04-25T19:41:58.411Z,100.00
2023-04-25T19:45:01.712Z,100.00
2023-04-25T19:48:04.945Z,100.00
2023-04-25T19:51:09.172Z,100.00
2023-04-25T19:54:12.016Z,100.00
2023-04-25T19:57:14.879Z,100.00
2023-04-25T20:00:19.929Z,100.00
2023-04-25T20:03:23.433Z,100.00
2023-04-25T20:06:27.398Z,100.00
2023-04-25T20:09:30.106Z,100.00
2023-04-25T20:12:33.298Z,100.00
2023-04-25T20:15:37.139Z,100.00
2023-04-25T20:18:40.064Z,100.00
2023-04-25T20:21:42.918Z,100.00
2023-04-25T20:24:45.472Z,100.00
2023-04-25T20:27:48.599Z,100.00
2023-04-25T20:30:52.053Z,100.00
2023-04-25T20:33:54.719Z,100.00
2023-04-25T20:36:58.061Z,100.00
2023-04-25T20:40:01.846Z,100.00
2023-04-25T20:43:05.797Z,100.00
2023-04-25T20:46:08.810Z,100.00
2023-04-25T20:49:11.421Z,100.00
2023-04-25T20:52:14.299Z,100.00
2023-04-25T20:55:17.040Z,100.00
2023-04-25T20:58:20.638Z,100.00
2023-04-25T21:01:24.368Z,100.00
2023-04-25T21:04:27.502Z,100.00
2023-04-25T21:07:30.312Z,100.00
2023-04-25T21:10:34.083Z,100.00
2023-04-25T21:13:38.654Z,100.00
2023-04-25T21:16:42.698Z,100.00
2023-04-25T21:19:45.598Z,100.00
2023-04-25T21:22:51.977Z,100.00
2023-04-25T21:25:56.759Z,100.00
2023-04-25T21:28:59.397Z,100.00
2023-04-25T21:32:02.815Z,100.00
2023-04-25T21:35:05.586Z,100.00
2023-04-25T21:38:08.281Z,100.00
2023-04-25T21:41:10.816Z,100.00
2023-04-25T21:44:14.881Z,100.00
2023-04-25T21:47:17.853Z,100.00
2023-04-25T21:50:21.123Z,100.00
2023-04-25T21:53:24.964Z,100.00
2023-04-25T21:56:27.579Z,100.00
2023-04-25T21:59:30.483Z,100.00
2023-04-25T22:02:33.497Z,100.00
2023-04-25T22:05:37.063Z,100.00
2023-04-25T22:08:40.014Z,100.00
2023-04-25T22:11:43.210Z,100.00
2023-04-25T22:14:46.218Z,100.00
2023-04-25T22:17:49.192Z,100.00
2023-04-25T22:20:52.136Z,100.00
2023-04-25T22:23:56.709Z,100.00
2023-04-25T22:26:59.667Z,100.00
2023-04-25T22:30:02.289Z,100.00
2023-04-25T22:33:05.421Z,100.00
2023-04-25T22:36:08.960Z,100.00
2023-04-25T22:39:11.997Z,100.00
2023-04-25T22:42:14.954Z,100.00
2023-04-25T22:45:17.732Z,100.00
2023-04-25T22:48:20.729Z,100.00
2023-04-25T22:51:23.541Z,100.00
2023-04-25T22:54:26.197Z,100.00
2023-04-25T22:57:29.554Z,100.00
2023-04-25T23:00:34.346Z,100.00
2023-04-25T23:03:37.575Z,100.00
2023-04-25T23:06:40.388Z,100.00
2023-04-25T23:09:45.326Z,100.00
2023-04-25T23:12:47.955Z,100.00
2023-04-25T23:15:50.976Z,100.00
2023-04-25T23:18:54.274Z,100.00
2023-04-25T23:21:57.675Z,100.00
2023-04-25T23:25:01.043Z,100.00
2023-04-25T23:28:03.788Z,100.00
2023-04-25T23:31:10.556Z,100.00
2023-04-25T23:34:13.805Z,100.00
2023-04-25T23:37:16.509Z,100.00
2023-04-25T23:40:19.767Z,100.00
2023-04-25T23:43:22.531Z,100.00
2023-04-25T23:46:26.058Z,100.00
2023-04-25T23:49:29.162Z,100.00
2023-04-25T23:52:32.150Z,100.00
2023-04-25T23:55:35.018Z,100.00
2023-04-25T23:58:37.664Z,100.00
